createdAt,value
2023-03-29T00:00:06.215Z,51.01
2023-03-29T00:01:06.236Z,50.42
2023-03-29T00:02:06.246Z,50.09
2023-03-29T00:03:06.376Z,50.09
2023-03-29T00:04:06.447Z,50.18
2023-03-29T00:05:06.209Z,50.18
2023-03-29T00:06:06.244Z,50.18
2023-03-29T00:07:06.208Z,50.18
2023-03-29T00:08:06.217Z,50.18
2023-03-29T00:09:06.354Z,49.86
2023-03-29T00:10:06.245Z,49.86
2023-03-29T00:11:06.235Z,49.73
2023-03-29T00:12:06.229Z,49.64
2023-03-29T00:13:06.269Z,50.04
2023-03-29T00:14:06.316Z,49.43
2023-03-29T00:15:06.242Z,49.28
2023-03-29T00:16:06.241Z,49.28
2023-03-29T00:18:06.307Z,50.46
2023-03-29T00:19:06.272Z,50.46
2023-03-29T00:20:06.275Z,50.08
2023-03-29T00:21:06.278Z,51.04
2023-03-29T00:22:06.282Z,51.04
2023-03-29T00:23:06.301Z,50.78
2023-03-29T00:24:06.346Z,50.85
2023-03-29T00:25:06.277Z,50.85
2023-03-29T00:27:06.275Z,50.62
2023-03-29T00:28:06.300Z,50.42
2023-03-29T00:29:06.334Z,47.42
2023-03-29T00:30:06.281Z,49.24
2023-03-29T00:31:06.333Z,49.24
2023-03-29T00:32:06.279Z,49.43
2023-03-29T00:33:06.307Z,48.55
2023-03-29T00:34:06.363Z,48.11
2023-03-29T00:35:06.315Z,48.16
2023-03-29T00:36:06.377Z,47.38
2023-03-29T00:38:06.304Z,46.51
2023-03-29T00:39:06.359Z,47.16
2023-03-29T00:40:06.334Z,47.16
2023-03-29T00:41:06.310Z,46.37
2023-03-29T00:42:06.310Z,47.54
2023-03-29T00:43:06.312Z,47.45
2023-03-29T00:44:06.349Z,47.45
2023-03-29T00:45:06.341Z,47.45
2023-03-29T00:46:06.336Z,47.11
2023-03-29T00:47:06.318Z,46.48
2023-03-29T00:48:06.413Z,46.47
2023-03-29T00:49:06.452Z,45.98
2023-03-29T00:50:06.939Z,46.55
2023-03-29T00:51:08.809Z,46.55
2023-03-29T00:52:06.378Z,46.18
2023-03-29T00:53:06.371Z,46.18
2023-03-29T00:54:06.381Z,46.68
2023-03-29T00:55:06.346Z,46.68
2023-03-29T00:57:06.441Z,47.29
2023-03-29T00:58:06.400Z,47.18
2023-03-29T00:59:06.376Z,47.18
2023-03-29T01:00:06.396Z,47.61
2023-03-29T01:01:06.390Z,47.02
2023-03-29T01:02:06.467Z,47.22
2023-03-29T01:04:06.422Z,47.03
2023-03-29T01:05:06.417Z,46.79
2023-03-29T01:06:06.405Z,47.30
2023-03-29T01:07:06.579Z,47.31
2023-03-29T01:08:06.380Z,47.00
2023-03-29T01:09:06.430Z,46.65
2023-03-29T01:10:06.408Z,46.65
2023-03-29T01:11:06.396Z,46.25
2023-03-29T01:12:06.418Z,45.81
2023-03-29T01:13:06.398Z,45.77
2023-03-29T01:14:06.421Z,46.20
2023-03-29T01:15:06.429Z,45.15
2023-03-29T01:16:06.459Z,45.43
2023-03-29T01:17:06.427Z,45.59
2023-03-29T01:18:06.455Z,45.59
2023-03-29T01:19:06.431Z,45.52
2023-03-29T01:20:06.459Z,44.86
2023-03-29T01:21:06.403Z,44.86
2023-03-29T01:22:06.424Z,43.08
2023-03-29T01:23:06.439Z,43.08
2023-03-29T01:24:06.423Z,43.44
2023-03-29T01:25:06.427Z,43.44
2023-03-29T01:26:06.461Z,43.80
2023-03-29T01:27:06.457Z,43.85
2023-03-29T01:28:06.473Z,44.15
2023-03-29T01:29:06.433Z,43.96
2023-03-29T01:30:06.447Z,43.91
2023-03-29T01:31:06.457Z,43.91
2023-03-29T01:32:06.493Z,43.02
2023-03-29T01:34:06.446Z,43.64
2023-03-29T01:35:06.463Z,43.36
2023-03-29T01:36:06.479Z,43.36
2023-03-29T01:38:06.491Z,43.72
2023-03-29T01:39:06.458Z,43.72
2023-03-29T01:40:06.458Z,43.85
2023-03-29T01:41:06.472Z,43.85
2023-03-29T01:42:06.486Z,44.23
2023-03-29T01:43:06.526Z,43.92
2023-03-29T01:44:06.506Z,43.90
2023-03-29T01:45:06.497Z,43.83
2023-03-29T01:46:06.486Z,43.94
2023-03-29T01:47:06.513Z,43.95
2023-03-29T01:48:06.516Z,43.95
2023-03-29T01:49:06.479Z,43.98
2023-03-29T01:50:06.548Z,43.94
2023-03-29T01:51:06.473Z,43.94
2023-03-29T01:52:06.492Z,43.90
2023-03-29T01:53:06.517Z,44.17
2023-03-29T01:55:06.496Z,44.33
2023-03-29T01:56:06.481Z,44.27
2023-03-29T01:57:06.532Z,44.60
2023-03-29T01:58:06.529Z,44.89
2023-03-29T01:59:06.500Z,44.89
2023-03-29T02:00:06.524Z,45.22
2023-03-29T02:01:06.560Z,44.95
2023-03-29T02:02:06.561Z,45.17
2023-03-29T02:03:06.577Z,45.17
2023-03-29T02:04:06.514Z,45.35
2023-03-29T02:05:06.545Z,45.31
2023-03-29T02:06:06.542Z,45.23
2023-03-29T02:07:06.532Z,45.45
2023-03-29T02:08:06.518Z,45.52
2023-03-29T02:09:06.524Z,45.81
2023-03-29T02:10:06.531Z,45.81
2023-03-29T02:11:06.523Z,46.19
2023-03-29T02:12:06.550Z,46.28
2023-03-29T02:13:06.568Z,46.11
2023-03-29T02:14:06.550Z,46.13
2023-03-29T02:15:06.567Z,46.21
2023-03-29T02:16:06.596Z,46.87
2023-03-29T02:17:06.567Z,46.87
2023-03-29T02:18:06.783Z,46.53
2023-03-29T02:19:06.577Z,46.53
2023-03-29T02:20:06.555Z,46.64
2023-03-29T02:21:06.593Z,46.80
2023-03-29T02:22:06.559Z,46.94
2023-03-29T02:23:06.573Z,46.83
2023-03-29T02:24:06.550Z,46.83
2023-03-29T02:25:06.557Z,47.15
2023-03-29T02:26:06.632Z,47.27
2023-03-29T02:27:06.591Z,47.27
2023-03-29T02:28:06.581Z,47.23
2023-03-29T02:29:06.630Z,47.11
2023-03-29T02:30:06.587Z,47.11
2023-03-29T02:33:06.665Z,47.22
2023-03-29T02:35:06.638Z,47.19
2023-03-29T02:36:06.625Z,47.19
2023-03-29T02:37:06.642Z,47.20
2023-03-29T02:38:06.619Z,47.25
2023-03-29T02:39:06.630Z,47.37
2023-03-29T02:40:06.592Z,47.78
2023-03-29T02:41:06.631Z,47.48
2023-03-29T02:42:06.608Z,47.06
2023-03-29T02:44:06.618Z,46.64
2023-03-29T02:45:06.607Z,46.71
2023-03-29T02:47:06.623Z,47.02
2023-03-29T02:51:06.681Z,47.64
2023-03-29T02:52:06.663Z,47.38
2023-03-29T02:53:06.675Z,47.38
2023-03-29T02:54:06.676Z,47.48
2023-03-29T02:56:06.649Z,47.16
2023-03-29T02:57:06.713Z,47.16
2023-03-29T02:58:06.655Z,47.05
2023-03-29T02:59:06.694Z,46.88
2023-03-29T03:00:06.703Z,46.88
2023-03-29T03:01:06.665Z,46.88
2023-03-29T03:02:06.706Z,46.91
2023-03-29T03:03:06.691Z,46.91
2023-03-29T03:04:06.759Z,46.98
2023-03-29T03:05:06.680Z,46.98
2023-03-29T03:07:06.675Z,47.10
2023-03-29T03:08:06.679Z,47.09
2023-03-29T03:11:06.725Z,46.95
2023-03-29T03:12:06.721Z,46.79
2023-03-29T03:13:06.694Z,46.79
2023-03-29T03:14:06.698Z,46.98
2023-03-29T03:16:06.713Z,47.05
2023-03-29T03:17:06.713Z,47.20
2023-03-29T03:18:06.753Z,47.09
2023-03-29T03:19:06.717Z,46.93
2023-03-29T03:20:06.719Z,46.92
2023-03-29T03:21:06.682Z,46.92
2023-03-29T03:22:06.702Z,47.16
2023-03-29T03:23:06.745Z,47.35
2023-03-29T03:24:06.703Z,47.35
2023-03-29T03:25:06.703Z,47.62
2023-03-29T03:27:06.701Z,47.66
2023-03-29T03:28:06.785Z,47.88
2023-03-29T03:29:06.711Z,47.88
2023-03-29T03:30:06.717Z,48.01
2023-03-29T03:31:06.734Z,48.08
2023-03-29T03:32:06.844Z,48.04
2023-03-29T03:33:06.841Z,48.19
2023-03-29T03:34:06.741Z,48.19
2023-03-29T03:35:06.736Z,48.33
2023-03-29T03:36:06.826Z,48.34
2023-03-29T03:37:06.729Z,48.34
2023-03-29T03:38:06.739Z,48.34
2023-03-29T03:39:06.751Z,48.53
2023-03-29T03:40:06.750Z,48.54
2023-03-29T03:41:06.755Z,48.54
2023-03-29T03:42:08.382Z,48.51
2023-03-29T03:43:06.793Z,48.30
2023-03-29T03:45:06.755Z,48.22
2023-03-29T03:46:06.825Z,48.24
2023-03-29T03:50:06.801Z,48.48
2023-03-29T03:53:06.780Z,48.66
2023-03-29T03:54:06.806Z,48.82
2023-03-29T03:55:06.783Z,48.86
2023-03-29T03:56:06.812Z,49.31
2023-03-29T03:57:06.876Z,49.71
2023-03-29T03:58:06.801Z,49.75
2023-03-29T03:59:06.824Z,49.47
2023-03-29T04:00:06.796Z,49.47
2023-03-29T04:01:06.824Z,49.57
2023-03-29T04:02:06.914Z,49.72
2023-03-29T04:03:06.965Z,48.75
2023-03-29T04:04:06.886Z,49.39
2023-03-29T04:05:06.841Z,49.74
2023-03-29T04:06:06.839Z,49.94
2023-03-29T04:07:06.833Z,49.94
2023-03-29T04:08:06.849Z,50.03
2023-03-29T04:09:06.865Z,49.98
2023-03-29T04:10:06.827Z,49.61
2023-03-29T04:11:06.837Z,50.14
2023-03-29T04:13:06.859Z,50.35
2023-03-29T04:14:06.818Z,50.50
2023-03-29T04:15:06.847Z,50.13
2023-03-29T04:16:06.992Z,49.91
2023-03-29T04:17:06.870Z,48.54
2023-03-29T04:18:06.979Z,48.13
2023-03-29T04:19:06.833Z,48.13
2023-03-29T04:20:06.869Z,48.09
2023-03-29T04:21:06.843Z,47.95
2023-03-29T04:22:06.846Z,47.95
2023-03-29T04:23:06.882Z,47.56
2023-03-29T04:24:06.879Z,47.65
2023-03-29T04:25:06.880Z,47.28
2023-03-29T04:27:06.905Z,46.86
2023-03-29T04:28:06.887Z,46.86
2023-03-29T04:29:06.889Z,46.93
2023-03-29T04:30:06.886Z,46.93
2023-03-29T04:31:06.908Z,46.50
2023-03-29T04:32:06.894Z,46.50
2023-03-29T04:33:06.945Z,46.67
2023-03-29T04:34:06.901Z,46.72
2023-03-29T04:35:06.933Z,46.51
2023-03-29T04:36:06.923Z,46.51
2023-03-29T04:37:06.887Z,46.67
2023-03-29T04:38:06.912Z,46.83
2023-03-29T04:39:06.911Z,46.83
2023-03-29T04:40:06.957Z,46.62
2023-03-29T04:42:06.928Z,46.84
2023-03-29T04:43:06.922Z,46.84
2023-03-29T04:44:06.936Z,46.89
2023-03-29T04:45:07.154Z,46.49
2023-03-29T04:46:06.982Z,46.49
2023-03-29T04:47:06.906Z,46.47
2023-03-29T04:48:07.114Z,46.49
2023-03-29T04:49:06.936Z,46.49
2023-03-29T04:50:06.942Z,46.43
2023-03-29T04:51:06.955Z,46.43
2023-03-29T04:52:06.946Z,46.37
2023-03-29T04:53:06.964Z,46.23
2023-03-29T04:54:06.968Z,46.29
2023-03-29T04:55:06.925Z,46.29
2023-03-29T04:56:06.962Z,46.11
2023-03-29T04:57:07.007Z,44.86
2023-03-29T04:58:06.957Z,44.56
2023-03-29T05:00:06.960Z,44.03
2023-03-29T05:01:07.005Z,43.54
2023-03-29T05:04:06.997Z,42.84
2023-03-29T05:05:06.985Z,42.05
2023-03-29T05:06:07.318Z,41.75
2023-03-29T05:07:06.977Z,41.16
2023-03-29T05:08:06.952Z,41.16
2023-03-29T05:09:06.970Z,41.46
2023-03-29T05:11:06.989Z,42.77
2023-03-29T05:12:07.000Z,41.97
2023-03-29T05:13:06.997Z,41.97
2023-03-29T05:14:07.194Z,42.44
2023-03-29T05:15:07.123Z,42.30
2023-03-29T05:16:07.151Z,41.89
2023-03-29T05:17:07.174Z,41.80
2023-03-29T05:18:07.203Z,41.78
2023-03-29T05:19:07.156Z,41.82
2023-03-29T05:21:07.175Z,41.33
2023-03-29T05:22:07.022Z,41.32
2023-03-29T05:23:07.022Z,41.32
2023-03-29T05:24:07.060Z,41.19
2023-03-29T05:25:06.997Z,41.57
2023-03-29T05:26:07.043Z,40.87
2023-03-29T05:27:07.075Z,40.99
2023-03-29T05:28:07.020Z,40.81
2023-03-29T05:29:07.050Z,40.77
2023-03-29T05:30:07.051Z,40.94
2023-03-29T05:31:07.075Z,40.72
2023-03-29T05:32:07.207Z,40.72
2023-03-29T05:33:07.116Z,40.79
2023-03-29T05:38:07.029Z,40.14
2023-03-29T05:39:07.116Z,40.21
2023-03-29T05:40:07.044Z,40.21
2023-03-29T05:41:07.038Z,40.04
2023-03-29T05:42:07.078Z,40.03
2023-03-29T05:43:07.064Z,40.03
2023-03-29T05:44:07.175Z,39.94
2023-03-29T05:46:07.137Z,39.91
2023-03-29T05:48:07.135Z,39.61
2023-03-29T05:51:07.192Z,39.60
2023-03-29T05:52:07.138Z,39.89
2023-03-29T05:53:07.092Z,39.89
2023-03-29T05:54:07.103Z,39.78
2023-03-29T05:55:07.121Z,39.70
2023-03-29T05:56:07.112Z,39.70
2023-03-29T05:57:07.157Z,39.73
2023-03-29T05:58:07.117Z,39.74
2023-03-29T05:59:07.124Z,39.72
2023-03-29T06:00:07.173Z,39.83
2023-03-29T06:01:07.148Z,39.85
2023-03-29T06:03:17.590Z,39.73
2023-03-29T06:04:07.153Z,39.80
2023-03-29T06:05:07.218Z,39.80
2023-03-29T06:06:07.128Z,39.77
2023-03-29T06:07:07.151Z,40.09
2023-03-29T06:08:07.104Z,40.15
2023-03-29T06:09:07.111Z,40.14
2023-03-29T06:10:07.146Z,40.01
2023-03-29T06:11:07.356Z,39.77
2023-03-29T06:13:07.146Z,39.89
2023-03-29T06:14:07.149Z,39.72
2023-03-29T06:15:07.168Z,39.71
2023-03-29T06:18:07.254Z,39.79
2023-03-29T06:19:07.170Z,39.73
2023-03-29T06:20:07.177Z,39.60
2023-03-29T06:21:07.167Z,39.60
2023-03-29T06:22:07.202Z,39.20
2023-03-29T06:23:07.159Z,39.39
2023-03-29T06:24:07.170Z,39.96
2023-03-29T06:25:07.212Z,39.55
2023-03-29T06:26:07.207Z,39.45
2023-03-29T06:27:07.176Z,39.38
2023-03-29T06:28:07.148Z,39.38
2023-03-29T06:29:07.198Z,39.54
2023-03-29T06:30:07.183Z,38.97
2023-03-29T06:31:07.379Z,38.93
2023-03-29T06:32:07.167Z,39.23
2023-03-29T06:33:07.276Z,39.97
2023-03-29T06:34:07.172Z,41.42
2023-03-29T06:35:07.204Z,42.09
2023-03-29T06:36:07.236Z,42.09
2023-03-29T06:37:07.221Z,42.72
2023-03-29T06:38:07.223Z,42.84
2023-03-29T06:39:07.191Z,43.17
2023-03-29T06:40:07.287Z,43.40
2023-03-29T06:41:07.245Z,43.46
2023-03-29T06:42:20.005Z,43.75
2023-03-29T06:43:07.275Z,44.16
2023-03-29T06:44:07.239Z,44.36
2023-03-29T06:45:07.230Z,44.36
2023-03-29T06:46:07.264Z,44.34
2023-03-29T06:47:07.217Z,45.47
2023-03-29T06:48:07.300Z,45.47
2023-03-29T06:49:07.253Z,45.37
2023-03-29T06:50:07.210Z,45.35
2023-03-29T06:51:07.255Z,45.66
2023-03-29T06:52:07.269Z,45.81
2023-03-29T06:54:07.262Z,45.47
2023-03-29T06:55:07.260Z,45.47
2023-03-29T06:56:07.235Z,45.31
2023-03-29T06:57:07.377Z,45.21
2023-03-29T06:58:07.299Z,45.21
2023-03-29T06:59:07.286Z,44.99
2023-03-29T07:00:07.260Z,44.99
2023-03-29T07:01:07.255Z,44.97
2023-03-29T07:02:07.355Z,44.78
2023-03-29T07:03:07.382Z,44.77
2023-03-29T07:04:07.265Z,45.05
2023-03-29T07:05:07.239Z,45.05
2023-03-29T07:06:07.250Z,45.63
2023-03-29T07:07:07.289Z,45.79
2023-03-29T07:08:07.289Z,45.71
2023-03-29T07:09:07.277Z,45.50
2023-03-29T07:10:07.308Z,45.50
2023-03-29T07:11:07.282Z,45.14
2023-03-29T07:12:07.306Z,45.14
2023-03-29T07:13:07.329Z,45.34
2023-03-29T07:14:07.321Z,45.29
2023-03-29T07:15:07.287Z,44.96
2023-03-29T07:16:07.334Z,44.45
2023-03-29T07:17:07.278Z,44.39
2023-03-29T07:18:07.378Z,44.77
2023-03-29T07:19:07.329Z,44.88
2023-03-29T07:20:07.311Z,45.07
2023-03-29T07:21:07.328Z,44.94
2023-03-29T07:22:07.299Z,44.82
2023-03-29T07:23:07.366Z,44.67
2023-03-29T07:24:07.328Z,44.57
2023-03-29T07:25:07.309Z,43.57
2023-03-29T07:26:07.302Z,43.12
2023-03-29T07:27:07.322Z,43.27
2023-03-29T07:28:07.350Z,43.32
2023-03-29T07:29:07.353Z,43.67
2023-03-29T07:30:07.333Z,43.86
2023-03-29T07:31:07.342Z,43.86
2023-03-29T07:32:07.365Z,44.23
2023-03-29T07:33:07.439Z,45.61
2023-03-29T07:34:07.356Z,45.97
2023-03-29T07:35:07.364Z,45.82
2023-03-29T07:36:07.414Z,46.20
2023-03-29T07:37:07.381Z,46.05
2023-03-29T07:38:07.329Z,46.05
2023-03-29T07:39:07.332Z,46.12
2023-03-29T07:40:07.358Z,46.08
2023-03-29T07:41:07.391Z,46.46
2023-03-29T07:42:07.360Z,46.46
2023-03-29T07:43:07.348Z,46.27
2023-03-29T07:44:07.360Z,46.20
2023-03-29T07:47:07.359Z,45.93
2023-03-29T07:48:07.439Z,46.07
2023-03-29T07:49:07.396Z,46.13
2023-03-29T07:50:07.377Z,45.75
2023-03-29T07:51:07.359Z,43.41
2023-03-29T07:52:07.452Z,44.83
2023-03-29T07:53:07.384Z,45.37
2023-03-29T07:55:07.452Z,44.67
2023-03-29T07:56:07.388Z,44.32
2023-03-29T07:57:07.441Z,44.04
2023-03-29T07:58:07.412Z,43.99
2023-03-29T07:59:07.421Z,44.06
2023-03-29T08:00:07.396Z,43.88
2023-03-29T08:01:07.441Z,43.90
2023-03-29T08:02:07.385Z,43.90
2023-03-29T08:03:07.597Z,43.29
2023-03-29T08:04:07.545Z,42.93
2023-03-29T08:05:07.423Z,42.93
2023-03-29T08:06:07.421Z,42.40
2023-03-29T08:07:07.431Z,42.84
2023-03-29T08:08:07.409Z,42.83
2023-03-29T08:09:07.409Z,42.21
2023-03-29T08:10:07.403Z,42.21
2023-03-29T08:11:08.533Z,42.49
2023-03-29T08:12:07.439Z,42.27
2023-03-29T08:13:07.482Z,42.40
2023-03-29T08:14:07.476Z,42.55
2023-03-29T08:15:07.474Z,42.63
2023-03-29T08:16:07.443Z,42.76
2023-03-29T08:17:07.589Z,42.86
2023-03-29T08:18:07.630Z,42.86
2023-03-29T08:19:07.462Z,43.11
2023-03-29T08:20:07.449Z,43.11
2023-03-29T08:21:07.477Z,43.30
2023-03-29T08:23:07.463Z,43.42
2023-03-29T08:24:07.456Z,43.42
2023-03-29T08:26:07.504Z,43.39
2023-03-29T08:27:07.506Z,43.43
2023-03-29T08:28:07.502Z,43.91
2023-03-29T08:29:07.461Z,43.51
2023-03-29T08:30:07.494Z,43.25
2023-03-29T08:31:07.532Z,43.74
2023-03-29T08:32:07.490Z,43.74
2023-03-29T08:33:07.518Z,43.76
2023-03-29T08:34:07.505Z,44.03
2023-03-29T08:35:07.507Z,43.85
2023-03-29T08:36:07.509Z,44.33
2023-03-29T08:37:07.486Z,44.33
2023-03-29T08:38:07.519Z,44.09
2023-03-29T08:39:07.504Z,44.27
2023-03-29T08:40:07.543Z,44.31
2023-03-29T08:41:07.521Z,43.88
2023-03-29T08:42:07.527Z,44.06
2023-03-29T08:43:07.523Z,43.38
2023-03-29T08:44:07.534Z,43.31
2023-03-29T08:45:07.536Z,43.54
2023-03-29T08:46:07.590Z,43.15
2023-03-29T08:47:07.517Z,42.09
2023-03-29T08:48:07.573Z,42.09
2023-03-29T08:49:07.551Z,41.74
2023-03-29T08:50:07.518Z,41.12
2023-03-29T08:51:09.825Z,41.07
2023-03-29T08:52:07.582Z,41.42
2023-03-29T08:53:07.541Z,41.57
2023-03-29T08:54:07.549Z,41.32
2023-03-29T08:55:07.602Z,41.19
2023-03-29T08:56:07.563Z,41.35
2023-03-29T08:57:07.628Z,41.53
2023-03-29T08:59:07.552Z,40.79
2023-03-29T09:00:07.599Z,41.10
2023-03-29T09:01:07.585Z,41.05
2023-03-29T09:02:07.620Z,40.86
2023-03-29T09:03:07.700Z,40.86
2023-03-29T09:04:07.580Z,40.33
2023-03-29T09:05:07.538Z,40.33
2023-03-29T09:06:07.558Z,39.88
2023-03-29T09:07:07.576Z,39.46
2023-03-29T09:08:07.564Z,39.73
2023-03-29T09:09:07.556Z,40.22
2023-03-29T09:10:07.602Z,40.36
2023-03-29T09:11:07.570Z,40.36
2023-03-29T09:12:07.589Z,40.51
2023-03-29T09:13:07.630Z,40.47
2023-03-29T09:14:07.599Z,40.84
2023-03-29T09:15:07.610Z,40.93
2023-03-29T09:16:07.692Z,40.58
2023-03-29T09:17:07.611Z,40.46
2023-03-29T09:18:07.650Z,40.46
2023-03-29T09:19:07.626Z,40.37
2023-03-29T09:20:07.584Z,40.09
2023-03-29T09:21:07.617Z,40.40
2023-03-29T09:22:07.592Z,40.61
2023-03-29T09:23:07.651Z,40.41
2023-03-29T09:24:07.621Z,40.41
2023-03-29T09:25:07.593Z,40.22
2023-03-29T09:26:07.614Z,40.54
2023-03-29T09:27:07.613Z,40.56
2023-03-29T09:28:07.648Z,40.63
2023-03-29T09:29:09.538Z,40.86
2023-03-29T09:30:07.608Z,40.98
2023-03-29T09:31:07.799Z,40.82
2023-03-29T09:32:07.750Z,40.91
2023-03-29T09:33:07.671Z,40.91
2023-03-29T09:34:07.596Z,40.73
2023-03-29T09:35:07.638Z,40.86
2023-03-29T09:36:07.639Z,41.57
2023-03-29T09:37:07.632Z,41.58
2023-03-29T09:38:07.622Z,41.46
2023-03-29T09:39:07.630Z,41.46
2023-03-29T09:41:07.662Z,41.78
2023-03-29T09:42:07.675Z,41.81
2023-03-29T09:43:07.703Z,41.77
2023-03-29T09:44:10.759Z,41.97
2023-03-29T09:45:07.662Z,41.26
2023-03-29T09:46:07.794Z,41.35
2023-03-29T09:47:07.681Z,41.28
2023-03-29T09:48:07.746Z,41.16
2023-03-29T09:49:07.696Z,41.16
2023-03-29T09:50:16.665Z,41.06
2023-03-29T09:51:07.718Z,41.61
2023-03-29T09:52:07.692Z,41.72
2023-03-29T09:53:07.701Z,41.09
2023-03-29T09:54:07.807Z,41.43
2023-03-29T09:56:07.734Z,42.23
2023-03-29T09:57:07.745Z,42.25
2023-03-29T10:00:07.723Z,41.62
2023-03-29T10:01:07.760Z,41.86
2023-03-29T10:02:07.719Z,41.86
2023-03-29T10:03:10.147Z,41.58
2023-03-29T10:04:07.839Z,41.58
2023-03-29T10:05:07.780Z,41.65
2023-03-29T10:06:07.712Z,41.65
2023-03-29T10:07:07.708Z,41.30
2023-03-29T10:08:07.726Z,41.30
2023-03-29T10:09:07.748Z,40.91
2023-03-29T10:10:07.719Z,40.91
2023-03-29T10:11:07.716Z,41.00
2023-03-29T10:12:07.712Z,40.83
2023-03-29T10:13:07.756Z,40.83
2023-03-29T10:14:07.793Z,40.37
2023-03-29T10:15:11.795Z,40.55
2023-03-29T10:16:07.843Z,40.55
2023-03-29T10:17:07.739Z,40.59
2023-03-29T10:18:07.800Z,40.36
2023-03-29T10:19:07.796Z,40.27
2023-03-29T10:20:09.605Z,39.83
2023-03-29T10:21:07.771Z,39.88
2023-03-29T10:22:07.736Z,39.88
2023-03-29T10:23:07.774Z,40.24
2023-03-29T10:24:07.784Z,39.59
2023-03-29T10:25:07.743Z,39.59
2023-03-29T10:26:07.780Z,40.04
2023-03-29T10:27:07.796Z,40.38
2023-03-29T10:28:07.766Z,40.20
2023-03-29T10:29:07.788Z,39.86
2023-03-29T10:30:07.820Z,39.86
2023-03-29T10:31:07.786Z,40.22
2023-03-29T10:32:07.811Z,40.39
2023-03-29T10:33:07.895Z,40.90
2023-03-29T10:34:07.783Z,40.90
2023-03-29T10:35:07.800Z,41.15
2023-03-29T10:36:07.868Z,40.62
2023-03-29T10:37:07.833Z,40.74
2023-03-29T10:38:07.862Z,39.78
2023-03-29T10:39:07.784Z,39.72
2023-03-29T10:40:07.779Z,39.72
2023-03-29T10:41:07.795Z,39.80
2023-03-29T10:43:07.834Z,39.35
2023-03-29T10:44:07.848Z,38.72
2023-03-29T10:45:07.813Z,38.72
2023-03-29T10:46:07.907Z,38.33
2023-03-29T10:47:07.863Z,38.43
2023-03-29T10:48:07.937Z,37.11
2023-03-29T10:49:07.808Z,37.04
2023-03-29T10:50:07.835Z,37.02
2023-03-29T10:51:07.837Z,37.24
2023-03-29T10:52:07.875Z,36.68
2023-03-29T10:53:07.897Z,36.85
2023-03-29T10:54:07.841Z,36.85
2023-03-29T10:55:07.840Z,36.53
2023-03-29T10:56:07.875Z,37.05
2023-03-29T10:57:07.880Z,37.25
2023-03-29T10:58:07.859Z,36.74
2023-03-29T10:59:07.854Z,36.04
2023-03-29T11:00:07.846Z,36.04
2023-03-29T11:01:07.910Z,37.31
2023-03-29T11:02:07.949Z,37.44
2023-03-29T11:03:08.020Z,37.39
2023-03-29T11:04:07.975Z,37.07
2023-03-29T11:05:07.861Z,37.26
2023-03-29T11:06:07.890Z,37.12
2023-03-29T11:07:07.898Z,37.06
2023-03-29T11:08:07.864Z,37.10
2023-03-29T11:09:07.876Z,37.10
2023-03-29T11:10:07.903Z,36.72
2023-03-29T11:11:07.871Z,36.84
2023-03-29T11:12:15.522Z,37.19
2023-03-29T11:13:07.889Z,37.19
2023-03-29T11:14:07.910Z,37.57
2023-03-29T11:15:07.936Z,37.54
2023-03-29T11:16:07.927Z,37.52
2023-03-29T11:17:07.879Z,37.68
2023-03-29T11:18:07.931Z,37.65
2023-03-29T11:19:07.898Z,37.65
2023-03-29T11:20:07.960Z,37.24
2023-03-29T11:21:10.656Z,37.24
2023-03-29T11:22:07.882Z,36.60
2023-03-29T11:23:07.892Z,36.53
2023-03-29T11:24:07.922Z,36.48
2023-03-29T11:25:07.968Z,36.06
2023-03-29T11:26:07.916Z,36.06
2023-03-29T11:27:07.930Z,35.97
2023-03-29T11:28:07.938Z,35.26
2023-03-29T11:29:07.919Z,34.92
2023-03-29T11:30:07.954Z,34.37
2023-03-29T11:31:08.006Z,34.37
2023-03-29T11:32:07.938Z,34.14
2023-03-29T11:33:07.933Z,33.92
2023-03-29T11:34:07.924Z,33.57
2023-03-29T11:35:07.949Z,33.42
2023-03-29T11:36:07.990Z,33.71
2023-03-29T11:37:07.937Z,32.93
2023-03-29T11:38:07.966Z,33.30
2023-03-29T11:39:07.937Z,32.68
2023-03-29T11:40:07.978Z,32.62
2023-03-29T11:41:07.940Z,32.62
2023-03-29T11:42:07.983Z,32.52
2023-03-29T11:43:07.941Z,32.52
2023-03-29T11:44:07.952Z,32.52
2023-03-29T11:45:07.947Z,32.52
2023-03-29T11:46:08.029Z,32.48
2023-03-29T11:47:07.973Z,31.94
2023-03-29T11:48:08.038Z,32.43
2023-03-29T11:49:07.979Z,32.71
2023-03-29T11:50:07.967Z,32.99
2023-03-29T11:51:07.972Z,32.97
2023-03-29T11:52:07.978Z,32.69
2023-03-29T11:53:08.023Z,32.25
2023-03-29T11:54:08.021Z,32.25
2023-03-29T11:55:07.995Z,33.06
2023-03-29T11:57:08.042Z,33.34
2023-03-29T11:58:08.019Z,33.34
2023-03-29T11:59:07.993Z,33.69
2023-03-29T12:00:07.985Z,33.91
2023-03-29T12:01:08.050Z,34.00
2023-03-29T12:02:08.019Z,34.39
2023-03-29T12:03:08.209Z,34.67
2023-03-29T12:04:08.061Z,34.67
2023-03-29T12:05:08.037Z,34.87
2023-03-29T12:06:08.008Z,35.18
2023-03-29T12:07:08.043Z,35.38
2023-03-29T12:08:08.041Z,35.77
2023-03-29T12:09:08.006Z,35.72
2023-03-29T12:10:08.051Z,35.67
2023-03-29T12:11:08.050Z,35.62
2023-03-29T12:12:08.015Z,35.71
2023-03-29T12:13:08.005Z,35.71
2023-03-29T12:14:08.023Z,35.69
2023-03-29T12:15:08.041Z,36.39
2023-03-29T12:16:08.089Z,36.63
2023-03-29T12:17:08.064Z,36.55
2023-03-29T12:18:08.102Z,36.72
2023-03-29T12:19:08.052Z,36.86
2023-03-29T12:20:08.116Z,36.92
2023-03-29T12:21:08.181Z,37.12
2023-03-29T12:22:08.059Z,37.12
2023-03-29T12:23:08.081Z,37.36
2023-03-29T12:24:08.061Z,37.36
2023-03-29T12:25:09.714Z,37.25
2023-03-29T12:26:08.099Z,37.58
2023-03-29T12:27:08.059Z,37.61
2023-03-29T12:28:08.061Z,37.61
2023-03-29T12:29:08.103Z,38.02
2023-03-29T12:30:08.118Z,38.02
2023-03-29T12:31:08.097Z,38.21
2023-03-29T12:32:08.132Z,38.91
2023-03-29T12:33:08.154Z,39.11
2023-03-29T12:34:08.083Z,39.24
2023-03-29T12:35:08.067Z,39.24
2023-03-29T12:36:08.121Z,39.36
2023-03-29T12:37:08.166Z,38.95
2023-03-29T12:38:08.093Z,39.15
2023-03-29T12:39:08.107Z,39.15
2023-03-29T12:40:08.196Z,39.00
2023-03-29T12:41:08.118Z,39.03
2023-03-29T12:42:08.210Z,39.07
2023-03-29T12:43:08.090Z,39.07
2023-03-29T12:44:10.662Z,39.02
2023-03-29T12:45:08.142Z,38.85
2023-03-29T12:46:08.278Z,38.92
2023-03-29T12:47:08.114Z,38.92
2023-03-29T12:48:08.190Z,39.08
2023-03-29T12:49:08.136Z,39.27
2023-03-29T12:50:08.265Z,39.17
2023-03-29T12:51:08.145Z,39.09
2023-03-29T12:52:08.119Z,39.09
2023-03-29T12:53:08.179Z,38.13
2023-03-29T12:54:08.175Z,38.13
2023-03-29T12:55:08.171Z,37.99
2023-03-29T12:56:08.168Z,37.99
2023-03-29T12:57:08.167Z,37.53
2023-03-29T12:58:08.181Z,37.86
2023-03-29T12:59:08.196Z,37.96
2023-03-29T13:00:08.200Z,37.87
2023-03-29T13:01:08.268Z,37.99
2023-03-29T13:02:08.213Z,37.62
2023-03-29T13:03:08.236Z,37.37
2023-03-29T13:04:08.186Z,37.30
2023-03-29T13:05:08.234Z,37.12
2023-03-29T13:06:08.151Z,37.12
2023-03-29T13:07:08.160Z,36.46
2023-03-29T13:08:08.222Z,36.01
2023-03-29T13:09:08.164Z,36.41
2023-03-29T13:10:08.296Z,36.43
2023-03-29T13:11:08.194Z,36.25
2023-03-29T13:12:08.202Z,36.63
2023-03-29T13:13:08.178Z,37.30
2023-03-29T13:14:08.182Z,37.56
2023-03-29T13:15:08.203Z,37.56
2023-03-29T13:16:08.277Z,37.66
2023-03-29T13:17:18.467Z,37.85
2023-03-29T13:18:10.956Z,38.37
2023-03-29T13:19:08.229Z,37.79
2023-03-29T13:20:08.216Z,38.20
2023-03-29T13:21:08.261Z,38.84
2023-03-29T13:22:08.247Z,38.66
2023-03-29T13:23:08.225Z,38.74
2023-03-29T13:24:08.239Z,38.54
2023-03-29T13:25:08.220Z,38.55
2023-03-29T13:26:08.208Z,38.45
2023-03-29T13:27:08.304Z,38.45
2023-03-29T13:28:08.212Z,38.83
2023-03-29T13:29:08.266Z,38.73
2023-03-29T13:30:08.258Z,38.54
2023-03-29T13:31:08.320Z,38.93
2023-03-29T13:32:08.228Z,38.99
2023-03-29T13:33:08.338Z,39.12
2023-03-29T13:34:08.303Z,39.49
2023-03-29T13:35:08.240Z,39.54
2023-03-29T13:36:08.385Z,39.35
2023-03-29T13:38:08.296Z,39.25
2023-03-29T13:39:08.327Z,39.08
2023-03-29T13:40:08.285Z,39.19
2023-03-29T13:41:08.246Z,39.04
2023-03-29T13:42:08.249Z,39.04
2023-03-29T13:43:08.255Z,39.24
2023-03-29T13:44:08.776Z,39.34
2023-03-29T13:45:08.268Z,39.34
2023-03-29T13:46:08.360Z,39.14
2023-03-29T13:47:08.289Z,39.47
2023-03-29T13:48:08.341Z,39.74
2023-03-29T13:49:08.357Z,40.01
2023-03-29T13:50:08.335Z,39.98
2023-03-29T13:51:08.375Z,39.98
2023-03-29T13:52:08.337Z,39.92
2023-03-29T13:53:08.300Z,39.67
2023-03-29T13:54:08.354Z,39.52